Time;durP1;ratioP1;P1;durP2;ratioP2;P2;SDS_P1;SDS_P2;PMS_P1;PMS_P2;Temp;Humidity;BMP_temperature;BMP_pressure;BME280_temperature;BME280_humidity;BME280_pressure;Samples;Min_cycle;Max_cycle;Signal;HPM_P1;HPM_P2
2020/12/27 00:00:16;;;;;;;62.88;18.52;;;;;;;6.77;91.20;99023.53;5073237;28;20112;-71
2020/12/27 00:02:42;;;;;;;49.85;17.52;;;;;;;6.72;91.45;99025.06;5074233;28;20503;-71
2020/12/27 00:05:08;;;;;;;53.65;17.77;;;;;;;6.80;91.17;99033.66;5073286;28;20113;-71
2020/12/27 00:07:35;;;;;;;46.22;19.00;;;;;;;6.82;91.10;99047.50;5073787;28;20492;-71
2020/12/27 00:10:00;;;;;;;48.63;18.05;;;;;;;6.80;90.93;99045.09;5072401;28;20036;-70
2020/12/27 00:12:26;;;;;;;81.88;19.85;;;;;;;6.67;91.42;99013.59;5072091;28;20037;-70
2020/12/27 00:14:52;;;;;;;55.10;18.60;;;;;;;6.82;90.71;99040.34;5073360;28;20039;-70
2020/12/27 00:17:17;;;;;;;66.70;18.08;;;;;;;6.80;90.69;99029.16;5072042;28;20197;-71
2020/12/27 00:19:43;;;;;;;96.22;21.20;;;;;;;6.69;90.57;99025.59;5072061;28;20035;-71
2020/12/27 00:22:09;;;;;;;90.40;20.30;;;;;;;6.72;91.20;99051.66;5073276;28;20299;-72
2020/12/27 00:24:35;;;;;;;106.95;19.65;;;;;;;6.70;91.37;99050.28;5072107;28;20024;-72
2020/12/27 00:27:01;;;;;;;69.75;18.75;;;;;;;6.69;91.78;99052.16;5073412;28;20079;-70
2020/12/27 00:29:26;;;;;;;64.22;17.20;;;;;;;6.70;91.16;99039.66;5073057;28;20063;-72
2020/12/27 00:31:53;;;;;;;56.15;18.25;;;;;;;6.72;91.68;99048.19;5072682;28;20032;-72
2020/12/27 00:34:19;;;;;;;88.03;20.02;;;;;;;6.70;91.59;99044.97;5073142;28;20097;-73
2020/12/27 00:36:45;;;;;;;88.65;19.60;;;;;;;6.75;91.41;99058.34;5072967;28;20549;-73
2020/12/27 00:39:11;;;;;;;58.58;17.17;;;;;;;6.77;91.75;99058.88;5071600;28;20029;-72
2020/12/27 00:41:37;;;;;;;69.53;16.83;;;;;;;6.79;92.01;99067.41;5072927;28;20389;-72
2020/12/27 00:44:03;;;;;;;82.15;18.38;;;;;;;6.80;91.58;99073.53;5073365;28;20035;-73
2020/12/27 00:46:29;;;;;;;117.25;20.67;;;;;;;6.81;91.12;99073.28;5072621;28;20029;-72
2020/12/27 00:48:55;;;;;;;60.33;17.75;;;;;;;6.83;91.20;99075.69;5072733;28;20047;-73
2020/12/27 00:51:21;;;;;;;50.17;16.52;;;;;;;6.85;91.45;99074.38;5072499;28;20054;-70
2020/12/27 00:53:47;;;;;;;108.20;21.10;;;;;;;6.85;91.48;99076.25;5071316;28;20228;-70
2020/12/27 00:56:12;;;;;;;41.08;16.02;;;;;;;6.82;91.83;99069.59;5072688;28;20025;-73
2020/12/27 00:58:39;;;;;;;62.15;18.08;;;;;;;6.76;91.51;99056.47;5071523;28;20145;-72
2020/12/27 01:01:06;;;;;;;50.30;15.85;;;;;;;6.85;91.78;99063.75;5072773;28;20020;-73
2020/12/27 01:03:32;;;;;;;97.82;20.73;;;;;;;6.86;91.45;99068.03;5072525;28;20020;-73
2020/12/27 01:05:58;;;;;;;52.70;16.52;;;;;;;6.93;91.75;99061.69;5073000;28;20033;-72
2020/12/27 01:08:23;;;;;;;43.50;16.23;;;;;;;6.92;91.24;99065.41;5072050;28;20025;-73
2020/12/27 01:10:48;;;;;;;95.40;20.77;;;;;;;6.92;91.16;99055.59;5071265;28;20127;-73
2020/12/27 01:13:14;;;;;;;38.42;14.75;;;;;;;6.93;91.30;99059.81;5072884;28;20108;-70
2020/12/27 01:15:40;;;;;;;89.40;18.60;;;;;;;6.93;91.63;99067.81;5072130;28;20408;-71
2020/12/27 01:18:06;;;;;;;34.60;15.50;;;;;;;6.95;91.58;99063.03;5072470;28;20028;-73
2020/12/27 01:20:32;;;;;;;34.90;13.52;;;;;;;6.90;92.02;99057.69;5072259;28;20029;-72
2020/12/27 01:22:57;;;;;;;60.17;17.17;;;;;;;6.96;91.65;99055.88;5072327;28;20032;-73
2020/12/27 01:25:22;;;;;;;44.63;15.32;;;;;;;6.96;92.05;99053.22;5071801;28;20502;-72
2020/12/27 01:27:48;;;;;;;94.15;18.35;;;;;;;6.97;91.96;99052.97;5070908;28;20150;-72
2020/12/27 01:30:13;;;;;;;35.85;13.40;;;;;;;6.99;92.08;99050.84;5071887;28;20364;-72
2020/12/27 01:32:41;;;;;;;64.70;17.38;;;;;;;7.00;91.72;99057.78;5071672;28;20039;-73
2020/12/27 01:35:06;;;;;;;40.92;15.15;;;;;;;7.02;92.48;99055.66;5072138;28;20035;-71
2020/12/27 01:37:32;;;;;;;45.85;16.95;;;;;;;7.03;92.03;99048.47;5071820;28;20103;-70
2020/12/27 01:39:57;;;;;;;55.20;16.77;;;;;;;7.05;92.21;99055.19;5071947;28;20064;-70
2020/12/27 01:42:22;;;;;;;64.13;17.67;;;;;;;7.07;91.98;99041.63;5071711;28;20468;-70
2020/12/27 01:44:48;;;;;;;47.65;17.13;;;;;;;7.07;91.91;99031.00;5087544;28;20491;-73
2020/12/27 01:47:19;;;;;;;70.70;18.73;;;;;;;7.02;92.35;99028.28;5071561;28;20028;-71
2020/12/27 01:49:45;;;;;;;47.45;17.42;;;;;;;7.04;92.23;99024.31;5070466;28;20028;-70
2020/12/27 01:52:11;;;;;;;45.00;15.95;;;;;;;7.10;92.41;99032.34;5071624;28;20031;-70
2020/12/27 01:54:39;;;;;;;49.65;16.10;;;;;;;7.16;92.30;99033.97;5070131;28;20032;-70
2020/12/27 01:57:13;;;;;;;48.95;17.73;;;;;;;7.15;92.48;99027.88;5071983;28;20028;-70
2020/12/27 01:59:39;;;;;;;119.65;24.73;;;;;;;7.12;92.21;99020.38;5070280;28;20028;-70
2020/12/27 02:02:06;;;;;;;52.38;18.90;;;;;;;7.19;92.28;99028.16;5071608;28;20025;-71
2020/12/27 02:04:32;;;;;;;58.95;19.77;;;;;;;7.23;92.67;99034.56;5071292;28;20039;-70
2020/12/27 02:06:58;;;;;;;43.50;18.95;;;;;;;7.24;92.66;99041.50;5071548;28;20063;-70
2020/12/27 02:09:23;;;;;;;50.63;19.20;;;;;;;7.26;92.30;99038.59;5070985;28;20410;-70
2020/12/27 02:12:04;;;;;;;62.70;18.67;;;;;;;7.26;92.40;99039.38;5070156;28;20040;-71
2020/12/27 02:14:30;;;;;;;62.17;19.23;;;;;;;7.28;92.55;99036.47;5071193;28;20039;-71
2020/12/27 02:16:55;;;;;;;41.72;17.05;;;;;;;7.22;92.29;99031.09;5086945;28;20021;-70
2020/12/27 02:19:21;;;;;;;53.63;18.13;;;;;;;7.30;92.33;99042.31;5069631;28;20036;-71
2020/12/27 02:21:47;;;;;;;47.95;18.38;;;;;;;7.27;92.52;99027.69;5071604;28;20028;-71
2020/12/27 02:24:13;;;;;;;68.13;19.77;;;;;;;7.34;92.32;99046.09;5069825;28;20610;-70
2020/12/27 02:26:38;;;;;;;54.35;18.70;;;;;;;7.35;92.43;99042.38;5071298;28;20233;-71
2020/12/27 02:29:08;;;;;;;47.33;18.73;;;;;;;7.37;92.31;99046.41;5069827;28;20529;-70
2020/12/27 02:31:34;;;;;;;72.63;18.25;;;;;;;7.39;92.50;99050.66;5070647;28;20447;-71
2020/12/27 02:33:59;;;;;;;55.33;17.70;;;;;;;7.37;91.91;99046.41;5071111;28;20130;-71
2020/12/27 02:36:24;;;;;;;51.22;17.48;;;;;;;7.40;91.68;99045.09;5070605;28;20385;-71
2020/12/27 02:38:50;;;;;;;52.40;16.85;;;;;;;7.36;92.36;99038.66;5070749;28;20033;-71
2020/12/27 02:41:17;;;;;;;89.60;20.10;;;;;;;7.41;92.13;99049.34;5069492;28;20024;-71
2020/12/27 02:43:43;;;;;;;45.53;16.55;;;;;;;7.43;91.76;99035.78;5069720;28;20037;-71
2020/12/27 02:46:20;;;;;;;35.50;16.35;;;;;;;7.44;92.16;99045.38;5069683;28;20056;-70
2020/12/27 02:48:45;;;;;;;37.47;15.15;;;;;;;7.44;91.87;99032.88;5071019;28;20437;-71
2020/12/27 02:51:11;;;;;;;42.97;15.85;;;;;;;7.45;91.96;99031.81;5069386;28;20028;-71
2020/12/27 02:53:37;;;;;;;62.03;17.02;;;;;;;7.46;91.79;99037.94;5068990;28;20025;-71
2020/12/27 02:56:02;;;;;;;36.53;15.40;;;;;;;7.46;91.58;99036.06;5070932;28;20422;-70
2020/12/27 02:58:28;;;;;;;40.40;16.17;;;;;;;7.41;91.72;99028.06;5070387;28;20107;-73
2020/12/27 03:00:53;;;;;;;33.60;15.73;;;;;;;7.42;92.34;99036.84;5069525;28;20027;-71
2020/12/27 03:03:18;;;;;;;40.47;14.93;;;;;;;7.41;91.89;99035.22;5070370;28;20481;-71
2020/12/27 03:05:44;;;;;;;40.08;14.35;;;;;;;7.46;92.34;99033.41;5070862;28;20029;-73
2020/12/27 03:08:09;;;;;;;38.00;13.13;;;;;;;7.50;92.70;99039.03;5069493;28;20115;-71
2020/12/27 03:10:34;;;;;;;35.25;14.48;;;;;;;7.48;92.08;99036.63;5070567;28;20514;-71
2020/12/27 03:13:00;;;;;;;40.05;13.63;;;;;;;7.43;92.39;99033.91;5069127;28;20028;-71
2020/12/27 03:15:25;;;;;;;36.00;12.95;;;;;;;7.49;92.07;99037.41;5070463;28;20116;-71
2020/12/27 03:17:53;;;;;;;37.45;13.02;;;;;;;7.47;92.07;99048.34;5069314;28;20029;-71
2020/12/27 03:20:19;;;;;;;35.08;12.80;;;;;;;7.50;92.65;99049.69;5085841;28;20491;-71
2020/12/27 03:22:44;;;;;;;26.33;11.88;;;;;;;7.52;92.87;99056.34;5070695;28;20040;-71
2020/12/27 03:25:10;;;;;;;33.13;12.60;;;;;;;7.51;92.53;99043.31;5070646;28;20024;-71
2020/12/27 03:27:35;;;;;;;20.30;10.00;;;;;;;7.51;92.67;99049.41;5069110;28;20024;-71
2020/12/27 03:30:01;;;;;;;26.60;10.88;;;;;;;7.45;92.91;99037.13;5070863;28;20095;-71
2020/12/27 03:32:26;;;;;;;26.17;10.18;;;;;;;7.51;92.73;99048.63;5070144;28;20032;-71
2020/12/27 03:34:52;;;;;;;13.77;6.55;;;;;;;7.46;93.37;99043.28;5070095;28;20052;-71
2020/12/27 03:37:17;;;;;;;8.55;5.10;;;;;;;7.42;93.58;99042.97;5070313;28;20028;-71
2020/12/27 03:39:42;;;;;;;11.13;5.45;;;;;;;7.44;93.32;99054.16;5069175;28;20120;-71
2020/12/27 03:42:08;;;;;;;8.43;4.05;;;;;;;7.42;93.72;99058.13;5070560;28;20025;-71
2020/12/27 03:44:33;;;;;;;8.05;4.18;;;;;;;7.37;93.73;99042.91;5068971;28;20399;-71
2020/12/27 03:46:58;;;;;;;4.68;2.60;;;;;;;7.40;93.32;99057.56;5069165;28;20051;-71
2020/12/27 03:49:24;;;;;;;3.17;2.35;;;;;;;7.33;93.98;99050.59;5070419;28;20024;-71
2020/12/27 03:51:49;;;;;;;6.38;2.30;;;;;;;7.38;93.43;99065.81;5069034;28;20035;-71
2020/12/27 03:54:14;;;;;;;4.45;1.63;;;;;;;7.26;93.93;99046.56;5070396;28;20024;-71
2020/12/27 03:56:40;;;;;;;2.60;1.38;;;;;;;7.39;93.65;99061.31;5068752;28;20472;-71
2020/12/27 03:59:05;;;;;;;2.00;1.55;;;;;;;7.33;92.83;99063.91;5070323;28;20029;-71
2020/12/27 04:01:33;;;;;;;1.33;1.00;;;;;;;7.27;92.72;99056.16;5069964;28;20029;-71
2020/12/27 04:03:58;;;;;;;1.60;1.10;;;;;;;7.19;92.74;99041.47;5070323;28;20099;-70
2020/12/27 04:06:23;;;;;;;2.28;0.85;;;;;;;7.19;92.88;99054.75;5071907;28;20111;-71
2020/12/27 04:08:49;;;;;;;1.27;0.90;;;;;;;7.13;93.30;99040.63;5073538;28;20086;-70
2020/12/27 04:11:14;;;;;;;1.45;1.30;;;;;;;7.02;93.11;99030.94;5072416;28;20390;-70
2020/12/27 04:13:39;;;;;;;3.22;0.80;;;;;;;6.97;92.92;99034.38;5072178;28;20035;-70
2020/12/27 04:16:05;;;;;;;2.65;1.00;;;;;;;6.92;92.80;99028.19;5072138;28;20423;-70
2020/12/27 04:18:30;;;;;;;2.92;0.50;;;;;;;6.93;93.23;99040.44;5073461;28;20100;-72
2020/12/27 04:20:56;;;;;;;0.43;0.40;;;;;;;6.88;93.24;99063.25;5073441;28;20118;-72
2020/12/27 04:23:22;;;;;;;1.48;0.60;;;;;;;6.87;93.56;99066.16;5072043;28;20024;-70
2020/12/27 04:25:47;;;;;;;2.03;0.93;;;;;;;6.87;92.86;99061.66;5073491;28;20048;-70
2020/12/27 04:28:13;;;;;;;0.68;0.68;;;;;;;6.88;92.90;99065.94;5073165;28;20108;-70
2020/12/27 04:30:38;;;;;;;1.40;1.00;;;;;;;6.83;92.83;99065.84;5073480;28;20063;-71
2020/12/27 04:33:04;;;;;;;1.85;1.30;;;;;;;6.78;93.39;99062.34;5073006;28;20076;-71
2020/12/27 04:35:29;;;;;;;1.98;0.68;;;;;;;6.71;93.55;99050.06;5071815;28;20032;-70
2020/12/27 04:37:54;;;;;;;0.55;0.43;;;;;;;6.65;93.83;99026.34;5073638;28;20086;-71
2020/12/27 04:40:20;;;;;;;0.50;0.30;;;;;;;6.55;93.54;99035.81;5071873;28;20395;-71
2020/12/27 04:42:50;;;;;;;0.70;0.40;;;;;;;6.57;94.40;99043.53;5073344;28;20028;-71
2020/12/27 04:45:16;;;;;;;0.70;0.50;;;;;;;6.56;94.24;99049.91;5073121;28;20536;-70
2020/12/27 04:47:41;;;;;;;0.70;0.68;;;;;;;6.53;94.79;99059.16;5072879;28;20111;-71
2020/12/27 04:50:07;;;;;;;1.30;0.57;;;;;;;6.54;94.85;99042.19;5073115;28;20032;-72
2020/12/27 04:52:33;;;;;;;1.02;0.77;;;;;;;6.59;94.74;99041.41;5072785;28;20054;-72
2020/12/27 04:54:58;;;;;;;2.15;1.00;;;;;;;6.57;94.85;99044.31;5072986;28;20020;-71
2020/12/27 04:57:24;;;;;;;6.00;1.00;;;;;;;6.68;94.38;99063.84;5072622;28;20035;-71
2020/12/27 04:59:54;;;;;;;0.88;0.70;;;;;;;6.72;94.61;99058.84;5073048;28;20028;-71
2020/12/27 05:02:19;;;;;;;1.27;0.90;;;;;;;6.73;94.44;99057.78;5071492;28;20472;-71
2020/12/27 05:04:46;;;;;;;0.32;0.32;;;;;;;6.84;93.63;99056.81;5072479;28;20031;-71
2020/12/27 05:07:17;;;;;;;1.08;0.60;;;;;;;6.87;93.47;99036.91;5072735;28;20150;-71
2020/12/27 05:09:43;;;;;;;1.23;0.45;;;;;;;6.87;93.31;99052.84;5072437;28;20391;-71
2020/12/27 05:12:09;;;;;;;0.82;0.73;;;;;;;6.88;93.46;99063.25;5071314;28;20024;-71
2020/12/27 05:14:35;;;;;;;1.02;0.90;;;;;;;6.85;92.94;99061.09;5072661;28;20063;-71
2020/12/27 05:17:00;;;;;;;3.42;1.38;;;;;;;6.94;93.30;99064.09;5071949;28;20048;-71
2020/12/27 05:19:28;;;;;;;2.03;1.55;;;;;;;6.95;92.88;99062.25;5070465;28;20522;-73
2020/12/27 05:21:54;;;;;;;1.40;1.15;;;;;;;6.97;92.50;99073.44;5072464;28;20116;-71
2020/12/27 05:24:20;;;;;;;2.67;1.30;;;;;;;6.95;92.89;99076.34;5072353;28;20070;-71
2020/12/27 05:26:46;;;;;;;1.23;1.05;;;;;;;6.97;92.87;99074.25;5070818;28;20033;-71
2020/12/27 05:29:29;;;;;;;1.17;0.98;;;;;;;6.93;93.07;99065.16;5072237;28;20020;-71
2020/12/27 05:31:55;;;;;;;2.83;1.20;;;;;;;7.01;92.84;99080.66;5070941;28;20468;-71
2020/12/27 05:34:20;;;;;;;1.25;0.90;;;;;;;7.04;92.20;99072.19;5070786;28;20043;-71
2020/12/27 05:36:46;;;;;;;4.90;1.90;;;;;;;7.07;92.12;99070.06;5071610;28;20024;-72
2020/12/27 05:39:15;;;;;;;2.25;0.85;;;;;;;7.05;91.86;99076.47;5070495;28;20402;-71
2020/12/27 05:41:40;;;;;;;1.50;0.98;;;;;;;7.06;91.74;99101.19;5071690;28;20118;-71
2020/12/27 05:44:06;;;;;;;2.83;2.03;;;;;;;7.05;91.98;99099.56;5070664;28;20063;-71
2020/12/27 05:46:31;;;;;;;2.35;1.52;;;;;;;7.02;91.95;99086.78;5071906;28;20060;-71
2020/12/27 05:48:58;;;;;;;4.55;2.45;;;;;;;6.94;92.06;99088.03;5071890;28;20502;-71
2020/12/27 05:51:25;;;;;;;3.45;2.15;;;;;;;7.04;91.72;99095.31;5070724;28;20177;-71
2020/12/27 05:53:53;;;;;;;3.47;2.45;;;;;;;7.04;92.13;99092.63;5071984;28;20028;-71
2020/12/27 05:56:21;;;;;;;1.83;1.33;;;;;;;7.07;91.80;99088.66;5070506;28;20035;-71
2020/12/27 05:58:48;;;;;;;1.88;0.85;;;;;;;7.08;91.59;99095.59;5071398;28;20028;-71
2020/12/27 06:01:22;;;;;;;1.10;1.00;;;;;;;7.10;92.20;99109.47;5071201;28;20024;-71
2020/12/27 06:03:59;;;;;;;1.10;1.00;;;;;;;7.10;91.84;99106.81;5071327;28;20029;-71
2020/12/27 06:06:50;;;;;;;0.82;0.52;;;;;;;7.07;91.81;99100.13;5071563;28;20429;-71
2020/12/27 06:09:44;;;;;;;2.42;0.60;;;;;;;6.99;92.22;99088.06;5071542;28;20205;-71
2020/12/27 06:12:13;;;;;;;0.43;0.32;;;;;;;7.04;91.73;99104.09;5071477;28;20531;-71
2020/12/27 06:14:42;;;;;;;;;;;;;;;7.03;91.24;99107.81;5070452;28;20036;-72
2020/12/27 06:17:15;;;;;;;0.30;0.30;;;;;;;7.02;91.97;99097.44;5071308;28;19982;-72
2020/12/27 06:19:56;;;;;;;0.55;0.38;;;;;;;6.95;91.96;99086.19;5069618;28;20073;-71
2020/12/27 06:22:32;;;;;;;1.85;0.70;;;;;;;6.98;91.55;99088.31;5071043;28;20518;-71
2020/12/27 06:25:00;;;;;;;1.52;1.00;;;;;;;6.95;90.89;99086.19;5071265;28;20044;-71
2020/12/27 06:27:27;;;;;;;2.60;0.98;;;;;;;6.91;90.79;99091.19;5071068;28;20021;-71
2020/12/27 06:29:57;;;;;;;1.27;0.82;;;;;;;6.87;91.47;99100.72;5069448;28;20043;-71
2020/12/27 06:32:26;;;;;;;2.85;1.35;;;;;;;6.80;91.44;99106.25;5071187;28;20479;-71
2020/12/27 06:34:53;;;;;;;2.90;1.58;;;;;;;6.74;92.16;99115.22;5069196;28;20431;-71
2020/12/27 06:37:18;;;;;;;2.63;1.20;;;;;;;6.75;91.80;99119.47;5070108;28;20372;-71
2020/12/27 06:39:46;;;;;;;2.05;1.30;;;;;;;6.78;92.27;99132.25;5070747;28;20027;-71
2020/12/27 06:42:19;;;;;;;1.17;1.08;;;;;;;6.84;92.06;99128.59;5071189;28;20527;-71
2020/12/27 06:44:49;;;;;;;2.20;1.67;;;;;;;6.80;91.70;99124.84;5070746;28;20024;-71
2020/12/27 06:47:16;;;;;;;0.82;0.73;;;;;;;6.82;91.73;99121.94;5069749;28;20503;-71
2020/12/27 06:49:42;;;;;;;0.82;0.82;;;;;;;6.83;91.57;99118.22;5069366;28;20025;-72
2020/12/27 06:52:19;;;;;;;1.80;1.30;;;;;;;6.82;91.47;99116.63;5070775;28;20561;-72
2020/12/27 06:54:54;;;;;;;2.63;1.83;;;;;;;6.77;91.68;99120.00;5070683;28;20025;-70
2020/12/27 06:57:43;;;;;;;3.22;2.00;;;;;;;6.77;91.41;99116.56;5069598;28;20128;-70
2020/12/27 07:00:29;;;;;;;4.25;2.53;;;;;;;6.76;92.31;99128.25;5070854;28;20104;-70
2020/12/27 07:03:20;;;;;;;3.55;2.38;;;;;;;6.76;92.11;99123.72;5069587;28;20035;-71
2020/12/27 07:05:47;;;;;;;3.38;2.47;;;;;;;6.74;92.16;99128.50;5070713;28;20021;-71
2020/12/27 07:08:37;;;;;;;8.27;3.22;;;;;;;6.69;91.89;99112.50;5070471;28;20543;-71
2020/12/27 07:11:05;;;;;;;3.92;1.90;;;;;;;6.69;92.11;99129.25;5070331;28;20556;-71
2020/12/27 07:13:40;;;;;;;2.28;1.65;;;;;;;6.67;92.11;99126.00;5070471;28;20027;-72
2020/12/27 07:16:09;;;;;;;4.20;1.70;;;;;;;6.65;91.77;99119.34;5070645;28;20028;-72
2020/12/27 07:18:35;;;;;;;3.60;2.05;;;;;;;6.64;92.79;99123.06;5068893;28;20032;-72
2020/12/27 07:21:02;;;;;;;4.55;2.20;;;;;;;6.61;92.41;99127.00;5069166;28;20021;-72
2020/12/27 07:23:32;;;;;;;5.05;2.88;;;;;;;6.63;92.71;99140.03;5070651;28;20099;-72
2020/12/27 07:26:00;;;;;;;5.57;3.58;;;;;;;6.57;92.82;99117.94;5069298;28;20403;-72
2020/12/27 07:28:26;;;;;;;17.10;7.90;;;;;;;6.61;93.00;99121.69;5070521;28;20320;-72
2020/12/27 07:31:00;;;;;;;5.82;3.55;;;;;;;6.55;93.02;99120.03;5070269;28;20059;-71
2020/12/27 07:33:29;;;;;;;9.18;5.55;;;;;;;6.59;92.75;99129.09;5070374;28;20131;-71
2020/12/27 07:36:09;;;;;;;6.63;4.45;;;;;;;6.57;93.27;99131.22;5070460;28;20031;-72
2020/12/27 07:38:59;;;;;;;9.90;5.55;;;;;;;6.56;93.41;99126.94;5069965;28;20035;-71
2020/12/27 07:41:26;;;;;;;8.65;4.32;;;;;;;6.54;92.94;99126.38;5072968;28;20107;-71
2020/12/27 07:43:51;;;;;;;11.93;6.32;;;;;;;6.55;93.83;99128.81;5074036;28;20391;-71
2020/12/27 07:46:21;;;;;;;6.65;4.50;;;;;;;6.56;93.66;99138.38;5072944;28;20030;-71
2020/12/27 07:48:48;;;;;;;6.25;3.55;;;;;;;6.57;93.30;99136.53;5073959;28;20033;-73
2020/12/27 07:51:18;;;;;;;5.88;2.38;;;;;;;6.56;93.51;99134.94;5072720;28;20028;-71
2020/12/27 07:53:55;;;;;;;4.50;2.50;;;;;;;6.55;93.69;99135.97;5073772;28;20032;-71
2020/12/27 07:56:21;;;;;;;2.97;2.05;;;;;;;6.47;92.81;99129.25;5074237;28;20032;-72
2020/12/27 07:58:52;;;;;;;3.65;2.33;;;;;;;6.50;92.49;99149.19;5072652;28;20402;-71
2020/12/27 08:01:18;;;;;;;4.80;2.78;;;;;;;6.43;92.66;99146.72;5073911;28;20325;-71
2020/12/27 08:03:48;;;;;;;6.40;3.80;;;;;;;6.37;93.12;99139.72;5073910;28;20028;-71
2020/12/27 08:06:19;;;;;;;5.65;3.03;;;;;;;6.38;93.17;99147.47;5073557;28;20055;-70
2020/12/27 08:08:45;;;;;;;10.02;4.68;;;;;;;6.33;92.51;99135.97;5073539;28;20032;-70
2020/12/27 08:11:21;;;;;;;10.77;5.38;;;;;;;6.34;93.14;99138.34;5073717;28;20043;-70
2020/12/27 08:14:14;;;;;;;7.70;4.32;;;;;;;6.24;93.03;99128.41;5073409;28;20036;-70
2020/12/27 08:16:41;;;;;;;8.07;4.18;;;;;;;6.33;93.43;99142.06;5072629;28;20048;-70
2020/12/27 08:19:12;;;;;;;15.75;4.90;;;;;;;6.29;92.86;99132.19;5072330;28;20025;-71
2020/12/27 08:21:39;;;;;;;7.22;3.83;;;;;;;6.25;93.27;99129.22;5071812;28;20082;-71
2020/12/27 08:24:07;;;;;;;11.70;5.50;;;;;;;6.23;93.03;99124.13;5073183;28;20033;-71
2020/12/27 08:26:35;;;;;;;5.97;3.27;;;;;;;6.15;93.70;99113.13;5072262;28;20032;-71
2020/12/27 08:29:17;;;;;;;;;;;;;;;6.21;93.24;99128.09;5073601;28;20036;-71
2020/12/27 08:31:48;;;;;;;5.28;3.35;;;;;;;6.17;93.70;99124.34;5072825;28;20275;-71
2020/12/27 08:34:24;;;;;;;7.82;3.83;;;;;;;6.02;93.83;99116.97;5071548;28;20314;-71
2020/12/27 08:36:54;;;;;;;7.47;3.80;;;;;;;6.18;94.35;99133.91;5072696;28;20096;-71
2020/12/27 08:39:26;;;;;;;6.53;3.20;;;;;;;6.10;93.92;99111.22;5072958;28;20131;-71
2020/12/27 08:42:18;;;;;;;26.65;10.88;;;;;;;6.17;94.55;99129.63;5072842;28;20052;-71
2020/12/27 08:44:46;;;;;;;11.38;7.05;;;;;;;6.15;94.53;99118.44;5072957;28;20032;-71
2020/12/27 08:47:20;;;;;;;9.65;5.32;;;;;;;6.23;95.03;99123.34;5073034;28;20024;-71
2020/12/27 08:49:55;;;;;;;16.33;7.93;;;;;;;6.25;94.53;99130.03;5071492;28;20033;-72
2020/12/27 08:52:23;;;;;;;11.82;6.93;;;;;;;6.22;94.50;99122.53;5070881;28;20017;-72
2020/12/27 08:54:57;;;;;;;7.90;4.70;;;;;;;6.32;94.59;99129.03;5071414;28;20028;-72
2020/12/27 08:57:24;;;;;;;12.02;7.20;;;;;;;6.33;94.45;99131.44;5072809;28;20029;-72
2020/12/27 08:59:59;;;;;;;10.70;6.25;;;;;;;6.33;94.31;99120.03;5071244;28;20220;-72
2020/12/27 09:02:25;;;;;;;11.13;5.93;;;;;;;6.34;94.77;99121.63;5071418;28;20029;-72
2020/12/27 09:05:08;;;;;;;8.70;5.78;;;;;;;6.33;94.44;99107.53;5070861;28;20035;-72
2020/12/27 09:07:34;;;;;;;6.00;4.25;;;;;;;6.25;95.29;99098.16;5072408;28;20025;-72
2020/12/27 09:10:18;;;;;;;10.98;5.80;;;;;;;6.32;94.99;99100.59;5072099;28;20476;-72
2020/12/27 09:13:06;;;;;;;6.65;4.18;;;;;;;6.32;95.39;99094.50;5072546;28;20106;-72
2020/12/27 09:15:46;;;;;;;6.82;3.92;;;;;;;6.34;96.11;99089.75;5072555;28;20119;-72
2020/12/27 09:18:14;;;;;;;10.35;6.57;;;;;;;6.30;95.69;99070.03;5072445;28;20035;-74
2020/12/27 09:20:44;;;;;;;15.45;6.18;;;;;;;6.39;96.23;99079.19;5072283;28;20039;-71
2020/12/27 09:23:14;;;;;;;10.93;6.15;;;;;;;6.39;96.38;99084.50;5070973;28;20517;-72
2020/12/27 09:25:40;;;;;;;10.18;6.70;;;;;;;6.52;96.26;99088.66;5070737;28;20059;-72
2020/12/27 09:28:20;;;;;;;13.13;6.07;;;;;;;6.59;95.81;99077.81;5071984;28;20484;-72
2020/12/27 09:30:57;;;;;;;13.07;7.05;;;;;;;6.65;95.19;99072.34;5072155;28;20108;-73
2020/12/27 09:33:22;;;;;;;24.23;9.48;;;;;;;6.64;94.55;99052.13;5070683;28;20075;-73
2020/12/27 09:35:58;;;;;;;17.45;8.05;;;;;;;6.65;94.85;99042.28;5072275;28;20111;-73
2020/12/27 09:38:33;;;;;;;13.52;9.65;;;;;;;6.60;95.07;99037.69;5070689;28;20025;-71
2020/12/27 09:41:08;;;;;;;17.27;9.75;;;;;;;6.69;95.62;99056.69;5070393;28;20029;-72
2020/12/27 09:43:59;;;;;;;35.53;16.83;;;;;;;6.76;95.42;99043.97;5071866;28;20086;-73
2020/12/27 09:46:44;;;;;;;19.83;11.27;;;;;;;6.80;94.53;99025.69;5070628;28;20082;-72
2020/12/27 09:49:32;;;;;;;19.92;11.02;;;;;;;6.83;94.92;99027.84;5070543;28;20147;-73
2020/12/27 09:52:02;;;;;;;21.00;11.43;;;;;;;6.86;94.61;99027.31;5070443;28;20051;-72
2020/12/27 09:54:30;;;;;;;25.90;14.20;;;;;;;6.84;95.04;99024.94;5070407;28;20449;-73
2020/12/27 09:56:56;;;;;;;34.47;18.50;;;;;;;6.90;95.01;99017.81;5071531;28;20036;-73
2020/12/27 09:59:21;;;;;;;33.45;17.15;;;;;;;6.95;94.86;99017.06;5070332;28;20403;-73
2020/12/27 10:01:47;;;;;;;39.45;19.60;;;;;;;7.05;94.48;99014.47;5071318;28;20491;-72
2020/12/27 10:04:12;;;;;;;34.70;16.80;;;;;;;7.08;94.59;99011.31;5071269;28;20029;-72
2020/12/27 10:06:37;;;;;;;40.08;20.52;;;;;;;7.14;94.40;99004.16;5071486;28;20463;-73
2020/12/27 10:09:03;;;;;;;37.03;20.13;;;;;;;7.23;94.46;99013.28;5071271;28;20032;-72
2020/12/27 10:11:28;;;;;;;38.28;18.70;;;;;;;7.29;94.30;99009.63;5070164;28;20501;-74
2020/12/27 10:13:53;;;;;;;33.38;17.95;;;;;;;7.29;94.04;99000.84;5069820;28;20055;-72
2020/12/27 10:16:19;;;;;;;16.20;7.82;;;;;;;7.38;94.04;99001.97;5069746;28;20502;-73
2020/12/27 10:18:45;;;;;;;24.05;8.65;;;;;;;7.35;92.91;98984.66;5069399;28;20024;-72
2020/12/27 10:21:10;;;;;;;46.28;12.07;;;;;;;7.25;93.21;98965.16;5070818;28;20028;-72
2020/12/27 10:23:35;;;;;;;37.45;12.13;;;;;;;7.31;94.02;98978.25;5071542;28;20024;-72
2020/12/27 10:26:05;;;;;;;31.08;11.00;;;;;;;7.34;94.04;98983.03;5069615;28;20101;-72
2020/12/27 10:28:30;;;;;;;26.17;10.93;;;;;;;7.36;94.04;98985.44;5071564;28;20456;-72
2020/12/27 10:30:56;;;;;;;18.27;9.63;;;;;;;7.39;94.34;98986.81;5070625;28;20032;-72
2020/12/27 10:33:21;;;;;;;21.92;10.85;;;;;;;7.41;94.32;98980.16;5069720;28;20044;-72
2020/12/27 10:35:46;;;;;;;46.83;12.82;;;;;;;7.52;93.79;98987.16;5070989;28;20297;-72
2020/12/27 10:38:12;;;;;;;24.58;9.05;;;;;;;7.53;93.74;98974.63;5069787;28;20032;-72
2020/12/27 10:40:38;;;;;;;31.20;8.00;;;;;;;7.52;93.14;98963.19;5069725;28;20024;-72
2020/12/27 10:43:06;;;;;;;41.03;9.93;;;;;;;7.48;93.45;98948.00;5070623;28;20055;-72
2020/12/27 10:45:31;;;;;;;44.10;14.57;;;;;;;7.44;93.64;98952.25;5069759;28;20025;-72
2020/12/27 10:47:57;;;;;;;28.38;11.43;;;;;;;7.51;94.02;98963.47;5069518;28;20044;-72
2020/12/27 10:50:23;;;;;;;24.60;12.55;;;;;;;7.57;94.30;98958.97;5086528;28;20024;-72
2020/12/27 10:52:48;;;;;;;33.88;12.82;;;;;;;7.60;93.84;98939.81;5069482;28;20051;-72
2020/12/27 10:55:13;;;;;;;68.75;13.05;;;;;;;7.60;93.65;98945.16;5071159;28;20492;-72
2020/12/27 10:57:39;;;;;;;19.30;10.43;;;;;;;7.60;94.24;98932.63;5086233;28;20039;-72
2020/12/27 11:00:07;;;;;;;19.83;10.55;;;;;;;7.69;94.16;98931.09;5070524;28;20020;-72
2020/12/27 11:02:32;;;;;;;31.98;9.73;;;;;;;7.73;93.76;98925.25;5070645;28;20028;-72
2020/12/27 11:04:57;;;;;;;27.85;10.48;;;;;;;7.73;93.82;98920.72;5070260;28;20077;-72
2020/12/27 11:07:23;;;;;;;42.63;11.27;;;;;;;7.71;93.90;98914.84;5070795;28;20104;-72
2020/12/27 11:09:48;;;;;;;27.83;9.20;;;;;;;7.73;93.87;98926.03;5069232;28;20020;-72
2020/12/27 11:12:14;;;;;;;50.33;11.68;;;;;;;7.72;94.22;98919.13;5069470;28;20404;-72
2020/12/27 11:14:39;;;;;;;50.95;12.88;;;;;;;7.74;94.37;98914.34;5072219;28;20073;-72
2020/12/27 11:17:05;;;;;;;70.90;15.82;;;;;;;7.79;94.50;98902.91;5074312;28;20032;-72
2020/12/27 11:19:30;;;;;;;70.15;15.25;;;;;;;7.79;94.32;98887.72;5073268;28;20028;-72
2020/12/27 11:21:56;;;;;;;45.25;11.23;;;;;;;7.79;94.81;98882.41;5074156;28;20535;-72
2020/12/27 11:24:21;;;;;;;39.85;10.77;;;;;;;7.83;94.69;98880.81;5090198;28;20499;-73
2020/12/27 11:26:47;;;;;;;35.30;11.82;;;;;;;7.87;94.48;98877.63;5073124;28;20071;-72
2020/12/27 11:29:12;;;;;;;47.17;14.10;;;;;;;7.90;94.90;98882.44;5074270;28;20073;-73
2020/12/27 11:31:37;;;;;;;29.23;12.80;;;;;;;7.92;94.76;98873.13;5074182;28;20538;-73
2020/12/27 11:34:03;;;;;;;31.05;10.95;;;;;;;7.94;94.87;98892.28;5074035;28;20048;-73
2020/12/27 11:36:28;;;;;;;26.60;10.68;;;;;;;7.94;94.81;98881.66;5089998;28;20476;-73
2020/12/27 11:38:53;;;;;;;28.20;11.50;;;;;;;8.02;94.97;98869.69;5089765;28;20024;-73